Time;durP1;ratioP1;P1;durP2;ratioP2;P2;SDS_P1;SDS_P2;PMS_P1;PMS_P2;Temp;Humidity;BMP_temperature;BMP_pressure;BME280_temperature;BME280_humidity;BME280_pressure;Samples;Min_cycle;Max_cycle;Signal;HPM_P1;HPM_P2
2022/12/31 00:01:20;;;;;;;0.70;0.50;;;12.50;99.90;;;;;;4928411;28;20298;-81
2022/12/31 00:03:46;;;;;;;3.85;0.60;;;12.60;99.90;;;;;;4927220;28;20178;-83
2022/12/31 00:06:14;;;;;;;1.10;0.60;;;12.70;99.90;;;;;;4927680;28;20234;-82
2022/12/31 00:08:40;;;;;;;0.95;0.60;;;12.70;99.90;;;;;;4940867;28;20206;-83
2022/12/31 00:11:06;;;;;;;1.23;0.67;;;;;;;;;;4928856;28;20268;-83
2022/12/31 00:13:32;;;;;;;0.60;0.50;;;;;;;;;;4928299;28;20190;-82
2022/12/31 00:16:13;;;;;;;1.30;0.50;;;12.70;99.90;;;;;;4923111;28;20857;-83
2022/12/31 00:18:43;;;;;;;1.17;0.82;;;12.80;99.90;;;;;;4942188;28;20475;-83
2022/12/31 00:21:09;;;;;;;0.40;0.40;;;12.70;99.90;;;;;;4926638;29;20212;-84
2022/12/31 00:23:35;;;;;;;1.03;0.53;;;;;;;;;;4922527;28;20215;-83
2022/12/31 00:26:07;;;;;;;0.88;0.40;;;12.80;99.90;;;;;;4927414;28;20433;-82
2022/12/31 00:28:34;;;;;;;1.48;0.50;;;12.80;99.90;;;;;;4934646;28;20244;-84
2022/12/31 00:31:11;;;;;;;1.30;0.40;;;12.80;99.90;;;;;;4930762;29;20181;-82
2022/12/31 00:33:38;;;;;;;0.50;0.40;;;;;;;;;;4931199;28;20199;-82
2022/12/31 00:36:31;;;;;;;0.53;0.53;;;12.80;99.90;;;;;;4925426;29;20848;-83
2022/12/31 00:38:59;;;;;;;3.25;0.52;;;12.90;99.90;;;;;;4929432;29;20461;-81
2022/12/31 00:41:26;;;;;;;0.88;0.77;;;12.80;99.90;;;;;;4941051;28;20189;-80
2022/12/31 00:43:52;;;;;;;0.50;0.40;;;;;;;;;;4930861;28;20563;-82
2022/12/31 00:46:18;;;;;;;0.80;0.60;;;;;;;;;;4927086;28;20434;-80
2022/12/31 00:48:44;;;;;;;0.77;0.50;;;;;;;;;;5006870;28;20904;-82
2022/12/31 00:51:12;;;;;;;0.53;0.53;;;13.10;99.90;;;;;;4929798;28;20939;-82
2022/12/31 00:53:38;;;;;;;0.50;0.37;;;;;;;;;;4935882;28;20449;-82
2022/12/31 00:56:10;;;;;;;0.77;0.57;;;12.90;99.90;;;;;;4926248;28;20437;-84
2022/12/31 00:58:36;;;;;;;0.70;0.40;;;;;;;;;;4925945;28;20465;-83
2022/12/31 01:01:10;;;;;;;0.60;0.50;;;13.30;99.90;;;;;;4928894;28;20545;-83
2022/12/31 01:03:36;;;;;;;0.50;0.50;;;;;;;;;;4928451;29;20489;-84
2022/12/31 01:06:02;;;;;;;0.70;0.50;;;;;;;;;;4929129;29;20863;-83
2022/12/31 01:08:28;;;;;;;0.40;0.30;;;;;;;;;;4927578;29;20555;-82
2022/12/31 01:13:39;;;;;;;1.88;0.57;;;;;;;;;;4950842;28;20507;-82
2022/12/31 01:16:09;;;;;;;0.60;0.50;;;13.50;99.90;;;;;;4940733;28;20576;-85
2022/12/31 01:18:35;;;;;;;1.17;0.50;;;;;;;;;;4944910;29;20609;-87
2022/12/31 01:21:06;;;;;;;1.83;0.50;;;13.80;99.90;;;;;;4949132;28;20429;-86
2022/12/31 01:23:32;;;;;;;0.50;0.40;;;;;;;;;;4932226;29;20492;-87
2022/12/31 01:26:03;;;;;;;0.50;0.30;;;14.00;99.90;;;;;;4929539;29;20418;-88
2022/12/31 01:28:29;;;;;;;1.57;0.50;;;;;;;;;;4935956;29;20568;-85
2022/12/31 01:30:55;;;;;;;1.53;0.50;;;;;;;;;;4933812;29;20445;-88
2022/12/31 01:33:21;;;;;;;0.60;0.40;;;;;;;;;;4931869;28;20429;-85
2022/12/31 01:35:47;;;;;;;1.27;0.53;;;;;;;;;;4932809;29;20557;-86
2022/12/31 01:38:13;;;;;;;1.57;0.40;;;;;;;;;;4931123;29;20440;-87
2022/12/31 01:40:39;;;;;;;0.60;0.53;;;14.20;99.90;;;;;;4936527;28;20429;-86
2022/12/31 01:43:18;;;;;;;1.33;0.50;;;14.30;99.90;;;;;;4931941;29;20932;-87
2022/12/31 01:45:45;;;;;;;0.80;0.77;;;14.30;99.90;;;;;;4935769;28;20441;-87
2022/12/31 01:48:14;;;;;;;0.88;0.50;;;14.20;99.90;;;;;;4935838;29;20453;-86
2022/12/31 01:50:40;;;;;;;0.70;0.43;;;;;;;;;;4936174;28;20182;-84
2022/12/31 01:53:09;;;;;;;0.90;0.50;;;14.10;99.90;;;;;;4938795;28;20415;-87
2022/12/31 01:55:47;;;;;;;7.17;0.60;;;14.30;99.90;;;;;;4936402;29;20426;-86
2022/12/31 01:58:26;;;;;;;0.50;0.40;;;14.20;99.90;;;;;;4929280;28;20456;-88
2022/12/31 02:00:52;;;;;;;1.33;0.80;;;;;;;;;;4933929;28;20520;-89
2022/12/31 02:03:21;;;;;;;1.90;0.50;;;14.00;99.90;;;;;;4936558;28;20444;-88
2022/12/31 02:05:59;;;;;;;0.90;0.50;;;14.00;99.90;;;;;;4929052;28;20433;-88
2022/12/31 02:08:25;;;;;;;0.60;0.40;;;;;;;;;;4947504;29;20479;-83
2022/12/31 02:10:51;;;;;;;0.90;0.40;;;;;;;;;;4930078;28;20438;-86
2022/12/31 02:13:17;;;;;;;1.17;0.60;;;;;;;;;;4950132;28;21076;-87
2022/12/31 02:15:43;;;;;;;0.53;0.40;;;;;;;;;;4934189;29;20414;-88
2022/12/31 02:18:13;;;;;;;0.87;0.50;;;14.20;99.90;;;;;;4930654;29;20516;-84
2022/12/31 02:21:00;;;;;;;0.60;0.40;;;14.40;99.90;;;;;;4932252;28;20466;-87
2022/12/31 02:23:58;;;;;;;1.23;1.00;;;14.20;99.90;;;;;;4932918;28;20425;-86
2022/12/31 02:27:10;;;;;;;0.93;0.70;;;14.30;99.90;;;;;;4930062;28;20437;-85
2022/12/31 02:30:06;;;;;;;0.70;0.50;;;14.40;99.90;;;;;;4888545;29;20441;-86
2022/12/31 02:32:44;;;;;;;1.37;0.50;;;14.30;99.90;;;;;;4927008;29;20444;-86
2022/12/31 02:35:18;;;;;;;0.60;0.60;;;14.40;99.90;;;;;;4931244;28;20425;-84
2022/12/31 02:37:48;;;;;;;0.70;0.50;;;14.50;99.90;;;;;;4932122;28;20444;-86
2022/12/31 02:40:18;;;;;;;2.20;0.67;;;14.50;99.90;;;;;;4932732;29;20488;-85
2022/12/31 02:42:44;;;;;;;0.97;0.87;;;;;;;;;;4930397;29;20453;-87
2022/12/31 02:45:14;;;;;;;2.03;0.80;;;14.50;99.90;;;;;;4931394;29;20440;-83
2022/12/31 02:48:07;;;;;;;0.60;0.47;;;14.50;99.90;;;;;;4934040;28;20466;-88
2022/12/31 02:50:54;;;;;;;2.03;0.97;;;14.30;99.90;;;;;;4943686;28;20468;-86
2022/12/31 02:53:34;;;;;;;4.00;0.80;;;14.50;99.90;;;;;;4934470;28;20976;-87
2022/12/31 02:56:29;;;;;;;0.50;0.50;;;14.50;99.90;;;;;;4931974;28;20441;-87
2022/12/31 03:02:14;;;;;;;0.80;0.60;;;14.40;99.90;;;;;;4924361;29;20448;-81
2022/12/31 03:05:07;;;;;;;0.97;0.53;;;14.50;99.90;;;;;;4930794;28;20524;-83
2022/12/31 03:07:33;;;;;;;0.90;0.70;;;;;;;;;;4927693;28;20559;-83
2022/12/31 03:10:00;;;;;;;1.10;0.70;;;;;;;;;;4927207;28;20424;-82
2022/12/31 03:12:47;;;;;;;1.13;0.50;;;14.60;99.90;;;;;;4929663;28;20443;-84
2022/12/31 03:15:31;;;;;;;2.27;0.80;;;14.60;99.90;;;;;;4932072;28;20848;-84
2022/12/31 03:17:57;;;;;;;2.30;1.00;;;;;;;;;;4925670;28;20903;-84
2022/12/31 03:23:25;;;;;;;0.80;0.53;;;14.70;99.90;;;;;;4928160;28;20460;-85
2022/12/31 03:25:52;;;;;;;4.70;0.60;;;14.90;99.90;;;;;;4937690;28;20452;-82
2022/12/31 03:28:19;;;;;;;0.93;0.40;;;15.00;99.90;;;;;;4926738;29;20456;-85
2022/12/31 03:30:48;;;;;;;1.00;0.83;;;15.30;99.90;;;;;;4923495;29;20441;-84
2022/12/31 03:33:14;;;;;;;2.43;0.70;;;;;;;;;;4926164;29;20431;-82
2022/12/31 03:35:41;;;;;;;1.60;0.40;;;15.30;99.90;;;;;;4923918;28;20441;-80
2022/12/31 03:38:07;;;;;;;2.63;0.90;;;15.20;99.90;;;;;;4928878;28;22060;-80
2022/12/31 03:40:40;;;;;;;1.23;0.40;;;15.20;99.90;;;;;;4928722;28;20449;-83
2022/12/31 03:43:06;;;;;;;0.77;0.77;;;;;;;;;;4936465;28;20528;-84
2022/12/31 03:45:33;;;;;;;4.90;0.90;;;;;;;;;;4924926;29;20451;-86
2022/12/31 03:47:59;;;;;;;0.70;0.67;;;;;;;;;;4929383;28;20481;-85
2022/12/31 03:50:25;;;;;;;0.50;0.40;;;;;;;;;;4924599;28;20437;-83
2022/12/31 03:52:51;;;;;;;6.50;0.70;;;;;;;;;;4925538;28;20437;-82
2022/12/31 03:55:17;;;;;;;1.20;0.60;;;;;;;;;;4926165;28;20446;-81
2022/12/31 03:57:43;;;;;;;2.20;0.60;;;;;;;;;;4925350;28;20476;-82
2022/12/31 04:00:12;;;;;;;1.77;0.70;;;15.60;99.90;;;;;;4925593;28;20445;-85
2022/12/31 04:02:38;;;;;;;0.80;0.60;;;;;;;;;;4920178;28;20442;-86
2022/12/31 04:05:04;;;;;;;0.60;0.53;;;;;;;;;;4925748;28;21147;-83
2022/12/31 04:07:30;;;;;;;1.40;0.60;;;;;;;;;;4924543;28;20496;-85
2022/12/31 04:09:56;;;;;;;0.50;0.40;;;;;;;;;;4925422;28;20434;-85
2022/12/31 04:12:22;;;;;;;0.90;0.30;;;;;;;;;;4923683;28;20442;-82
2022/12/31 04:14:48;;;;;;;0.80;0.60;;;;;;;;;;4919662;29;20476;-83
2022/12/31 04:17:14;;;;;;;0.70;0.60;;;;;;;;;;4927972;28;20465;-83
2022/12/31 04:19:40;;;;;;;2.23;0.50;;;;;;;;;;4926101;29;21026;-86
2022/12/31 04:22:06;;;;;;;0.50;0.40;;;;;;;;;;4923982;28;20445;-83
2022/12/31 04:24:32;;;;;;;1.33;0.50;;;;;;;;;;4924996;29;20530;-83
2022/12/31 04:26:58;;;;;;;3.13;0.83;;;;;;;;;;4923164;28;20854;-83
2022/12/31 04:29:24;;;;;;;1.83;0.70;;;;;;;;;;4922154;28;20539;-83
2022/12/31 04:31:50;;;;;;;1.43;0.53;;;;;;;;;;4921774;28;20467;-80
2022/12/31 04:34:16;;;;;;;0.80;0.80;;;;;;;;;;4935114;28;20524;-83
2022/12/31 04:36:42;;;;;;;0.50;0.43;;;;;;;;;;4928174;28;20448;-83
2022/12/31 04:39:08;;;;;;;0.97;0.60;;;;;;;;;;4921374;28;20449;-80
2022/12/31 04:41:34;;;;;;;0.80;0.53;;;;;;;;;;4920062;28;20450;-79
2022/12/31 04:44:00;;;;;;;0.80;0.57;;;;;;;;;;4923385;29;20504;-84
2022/12/31 04:46:29;;;;;;;1.13;0.47;;;15.00;99.90;;;;;;4921628;29;20437;-84
2022/12/31 04:48:55;;;;;;;1.27;0.60;;;;;;;;;;4926062;29;22480;-82
2022/12/31 04:51:21;;;;;;;8.90;1.00;;;;;;;;;;5004723;28;20434;-83
2022/12/31 04:53:47;;;;;;;0.60;0.50;;;;;;;;;;4923100;28;20488;-81
2022/12/31 04:56:15;;;;;;;2.50;0.70;;;14.90;99.90;;;;;;4920898;28;20433;-82
2022/12/31 04:58:40;;;;;;;0.60;0.50;;;;;;;;;;4925629;28;20460;-82
2022/12/31 05:01:07;;;;;;;0.57;0.40;;;;;;;;;;4926927;28;20448;-84
2022/12/31 05:03:33;;;;;;;0.60;0.40;;;14.90;99.90;;;;;;4926558;28;20440;-83
2022/12/31 05:06:17;;;;;;;0.77;0.70;;;14.80;99.90;;;;;;4916698;28;20436;-81
2022/12/31 05:08:43;;;;;;;1.70;0.97;;;;;;;;;;4920692;28;20473;-81
2022/12/31 05:11:09;;;;;;;0.60;0.60;;;14.50;99.90;;;;;;4921082;28;20441;-85
2022/12/31 05:13:35;;;;;;;0.70;0.60;;;;;;;;;;4909716;28;20445;-81
2022/12/31 05:16:02;;;;;;;1.27;0.50;;;14.50;99.90;;;;;;4921634;28;20437;-83
2022/12/31 05:18:28;;;;;;;0.80;0.50;;;;;;;;;;4923412;28;21032;-82
2022/12/31 05:20:53;;;;;;;1.00;0.60;;;;;;;;;;4919399;28;20444;-81
2022/12/31 05:23:19;;;;;;;0.77;0.47;;;;;;;;;;4922577;28;20440;-84
2022/12/31 05:25:46;;;;;;;0.90;0.63;;;;;;;;;;4918204;28;20447;-84
2022/12/31 05:28:12;;;;;;;1.00;0.50;;;;;;;;;;4922175;28;20534;-83
2022/12/31 05:30:38;;;;;;;2.10;0.40;;;;;;;;;;4920377;28;20446;-85
2022/12/31 05:33:04;;;;;;;1.23;0.80;;;;;;;;;;4918413;28;20480;-83
2022/12/31 05:35:30;;;;;;;1.40;0.60;;;;;;;;;;4916710;28;20441;-82
2022/12/31 05:37:56;;;;;;;1.10;0.67;;;;;;;;;;4922373;28;20471;-79
2022/12/31 05:40:22;;;;;;;3.10;0.80;;;;;;;;;;4936783;28;20441;-83
2022/12/31 05:42:49;;;;;;;0.97;0.53;;;14.80;99.90;;;;;;4920919;29;20924;-84
2022/12/31 05:45:15;;;;;;;0.87;0.40;;;;;;;;;;4917464;29;20973;-81
2022/12/31 05:47:42;;;;;;;0.70;0.53;;;;;;;;;;4916898;28;20477;-85
2022/12/31 05:50:09;;;;;;;0.77;0.50;;;15.00;99.90;;;;;;4920883;28;20442;-79
2022/12/31 05:52:36;;;;;;;0.70;0.40;;;;;;;;;;4922177;28;20452;-80
2022/12/31 05:55:02;;;;;;;0.50;0.30;;;;;;;;;;4924832;29;20928;-83
2022/12/31 05:57:28;;;;;;;1.00;0.40;;;;;;;;;;4924423;28;20496;-84
2022/12/31 05:59:54;;;;;;;1.10;0.70;;;;;;;;;;4923817;28;20446;-84
2022/12/31 06:02:20;;;;;;;0.90;0.87;;;;;;;;;;4938529;28;20499;-82
2022/12/31 06:04:46;;;;;;;1.00;0.40;;;;;;;;;;4924723;28;20448;-83
2022/12/31 06:07:12;;;;;;;1.50;0.60;;;;;;;;;;4927976;28;20476;-83
2022/12/31 06:09:38;;;;;;;1.73;0.60;;;;;;;;;;4922499;29;20438;-85
2022/12/31 06:12:04;;;;;;;0.93;0.43;;;;;;;;;;4921209;29;20452;-84
2022/12/31 06:14:30;;;;;;;0.50;0.40;;;;;;;;;;4938613;28;20469;-83
2022/12/31 06:16:56;;;;;;;0.70;0.50;;;;;;;;;;4929156;28;20552;-84
2022/12/31 06:19:22;;;;;;;0.50;0.50;;;;;;;;;;4924413;28;20477;-86
2022/12/31 06:21:48;;;;;;;0.50;0.43;;;;;;;;;;4923295;28;20464;-85
2022/12/31 06:24:14;;;;;;;0.60;0.43;;;;;;;;;;4918060;28;20437;-84
2022/12/31 06:26:40;;;;;;;0.80;0.40;;;;;;;;;;4926252;28;20435;-84
2022/12/31 06:29:06;;;;;;;0.73;0.60;;;;;;;;;;4919663;28;20462;-82
2022/12/31 06:31:32;;;;;;;0.70;0.40;;;;;;;;;;4921888;28;21212;-79
2022/12/31 06:33:58;;;;;;;0.50;0.50;;;;;;;;;;4923659;28;20437;-83
2022/12/31 06:36:25;;;;;;;3.00;0.70;;;;;;;;;;4922340;28;20438;-80
2022/12/31 06:38:51;;;;;;;1.00;0.50;;;;;;;;;;4918923;28;20453;-84
2022/12/31 06:41:17;;;;;;;1.23;0.73;;;;;;;;;;4920532;28;20480;-84
2022/12/31 06:43:43;;;;;;;0.63;0.40;;;;;;;;;;4923224;28;21693;-82
2022/12/31 06:46:12;;;;;;;1.13;0.80;;;15.10;99.90;;;;;;4921175;28;20441;-84
2022/12/31 06:48:41;;;;;;;5.30;0.83;;;15.10;99.90;;;;;;4919535;29;20501;-83
2022/12/31 06:51:09;;;;;;;0.70;0.67;;;15.10;99.90;;;;;;4922021;28;20449;-84
2022/12/31 06:53:35;;;;;;;0.80;0.50;;;;;;;;;;4925604;28;20465;-82
2022/12/31 06:56:06;;;;;;;1.40;0.70;;;15.30;99.90;;;;;;4925903;28;20405;-80
2022/12/31 06:58:32;;;;;;;1.27;0.50;;;;;;;;;;4923350;29;20516;-81
2022/12/31 07:01:26;;;;;;;1.13;0.87;;;15.00;99.90;;;;;;4918895;28;20463;-79
2022/12/31 07:04:18;;;;;;;0.90;0.90;;;15.00;99.90;;;;;;4908356;29;20440;-84
2022/12/31 07:07:02;;;;;;;2.47;0.70;;;14.90;99.90;;;;;;4934624;29;20462;-83
2022/12/31 07:09:51;;;;;;;1.10;0.77;;;14.90;99.90;;;;;;4919762;28;20457;-81
2022/12/31 07:12:23;;;;;;;0.70;0.50;;;14.80;99.90;;;;;;4925869;28;20846;-81
2022/12/31 07:14:54;;;;;;;0.50;0.40;;;14.80;99.90;;;;;;4921028;28;20458;-79
2022/12/31 07:17:57;;;;;;;0.80;0.53;;;14.70;99.90;;;;;;4916560;28;20470;-81
2022/12/31 07:20:22;;;;;;;1.00;0.60;;;14.60;99.90;;;;;;4919831;28;20429;-85
2022/12/31 07:22:48;;;;;;;2.87;0.93;;;;;;;;;;4923414;28;20486;-81
2022/12/31 07:25:18;;;;;;;1.10;0.53;;;15.00;99.90;;;;;;4929623;28;20189;-84
2022/12/31 07:28:05;;;;;;;0.70;0.60;;;14.80;99.90;;;;;;4925118;28;20484;-82
2022/12/31 07:31:03;;;;;;;1.50;0.70;;;14.80;99.90;;;;;;4926899;28;20477;-82
2022/12/31 07:33:43;;;;;;;1.73;1.57;;;14.70;99.90;;;;;;4927285;29;20428;-83
2022/12/31 07:36:21;;;;;;;1.10;0.80;;;14.80;99.90;;;;;;4942132;28;20468;-84
2022/12/31 07:39:13;;;;;;;1.50;1.00;;;14.90;99.90;;;;;;4924550;28;20476;-83
2022/12/31 07:41:39;;;;;;;1.00;0.80;;;;;;;;;;4931456;28;20437;-84
2022/12/31 07:44:05;;;;;;;1.27;1.17;;;;;;;;;;4929196;28;20771;-80
2022/12/31 07:46:55;;;;;;;2.40;1.43;;;15.00;99.90;;;;;;4925397;29;20523;-80
2022/12/31 07:49:22;;;;;;;3.63;2.20;;;14.90;99.90;;;;;;4924594;29;20442;-80
2022/12/31 07:51:48;;;;;;;1.00;0.70;;;;;;;;;;4924542;29;20473;-83
2022/12/31 07:54:14;;;;;;;2.03;1.37;;;;;;;;;;4929314;28;20453;-84
2022/12/31 07:56:41;;;;;;;2.50;1.47;;;;;;;;;;4941525;29;20437;-83
2022/12/31 07:59:38;;;;;;;3.60;2.67;;;15.00;99.90;;;;;;4927255;28;20485;-82
2022/12/31 08:02:04;;;;;;;1.10;1.00;;;;;;;;;;4947081;28;20471;-85
2022/12/31 08:04:57;;;;;;;1.30;1.00;;;15.10;99.90;;;;;;4927594;29;20442;-81
2022/12/31 08:07:35;;;;;;;3.07;0.70;;;15.10;99.90;;;;;;4941481;29;20485;-84
2022/12/31 08:10:25;;;;;;;1.57;0.50;;;15.20;99.90;;;;;;4925721;28;20453;-81
2022/12/31 08:12:59;;;;;;;1.53;1.17;;;15.20;99.90;;;;;;4927341;28;20901;-81
2022/12/31 08:15:25;;;;;;;2.27;1.10;;;15.20;99.90;;;;;;4944312;28;20448;-81
2022/12/31 08:17:51;;;;;;;1.70;0.73;;;;;;;;;;4929055;28;20885;-81
2022/12/31 08:20:17;;;;;;;2.90;0.80;;;;;;;;;;4925485;29;20438;-80
2022/12/31 08:23:00;;;;;;;2.30;0.63;;;15.30;99.90;;;;;;4927916;29;20453;-81
2022/12/31 08:25:47;;;;;;;1.00;0.90;;;15.30;99.90;;;;;;4925362;28;20429;-81
2022/12/31 08:28:46;;;;;;;0.80;0.70;;;15.60;99.90;;;;;;4925794;28;20484;-83
2022/12/31 08:31:49;;;;;;;8.07;0.83;;;15.40;99.90;;;;;;4940963;28;20448;-78
2022/12/31 08:34:30;;;;;;;1.10;0.73;;;15.40;99.90;;;;;;4927346;29;20468;-80
2022/12/31 08:37:05;;;;;;;0.80;0.70;;;15.50;99.90;;;;;;4924128;28;20473;-82
2022/12/31 08:39:45;;;;;;;1.20;0.83;;;15.50;99.90;;;;;;4927190;28;20447;-81
2022/12/31 08:43:02;;;;;;;1.00;0.73;;;15.50;99.90;;;;;;4932255;29;20429;-82
2022/12/31 08:45:36;;;;;;;0.70;0.60;;;15.50;99.90;;;;;;4935594;28;20441;-80
2022/12/31 08:48:20;;;;;;;0.50;0.40;;;15.60;99.90;;;;;;4927610;28;20520;-80
2022/12/31 08:50:46;;;;;;;0.60;0.40;;;15.70;99.90;;;;;;4938628;28;20525;-83
2022/12/31 08:53:12;;;;;;;1.17;0.90;;;;;;;;;;4941817;29;20481;-80
2022/12/31 08:55:40;;;;;;;2.20;1.00;;;15.60;99.90;;;;;;4926195;28;20188;-81
2022/12/31 08:58:06;;;;;;;4.50;1.00;;;;;;;;;;4924545;28;20899;-81
2022/12/31 09:00:33;;;;;;;1.67;1.10;;;15.70;99.90;;;;;;4926184;29;20465;-80
2022/12/31 09:03:39;;;;;;;1.63;1.37;;;15.80;99.90;;;;;;4930861;28;20445;-80
2022/12/31 09:06:26;;;;;;;3.13;0.90;;;16.20;99.90;;;;;;4924399;29;20491;-81
2022/12/31 09:09:05;;;;;;;1.13;0.73;;;16.20;99.90;;;;;;4926896;28;20492;-82
2022/12/31 09:12:03;;;;;;;1.93;1.30;;;16.70;99.90;;;;;;4922260;28;20943;-86
2022/12/31 09:14:45;;;;;;;2.33;2.13;;;17.10;99.90;;;;;;4924557;29;20894;-82
2022/12/31 09:17:14;;;;;;;1.07;0.87;;;16.90;99.90;;;;;;4925815;29;20826;-82
2022/12/31 09:19:40;;;;;;;5.00;1.20;;;;;;;;;;4920598;28;20448;-81
2022/12/31 09:22:06;;;;;;;4.13;2.60;;;;;;;;;;4921508;28;20507;-82
2022/12/31 09:24:31;;;;;;;1.20;0.80;;;16.50;99.90;;;;;;4924203;28;20438;-82
2022/12/31 09:27:04;;;;;;;3.80;0.60;;;16.70;99.90;;;;;;4923714;28;20519;-82
2022/12/31 09:29:54;;;;;;;1.70;1.20;;;16.60;99.90;;;;;;4938586;28;20185;-79
2022/12/31 09:32:51;;;;;;;1.60;0.97;;;16.70;99.90;;;;;;4922898;28;20981;-80
2022/12/31 09:35:37;;;;;;;3.13;0.80;;;16.50;99.90;;;;;;4929137;28;20449;-80
2022/12/31 09:38:42;;;;;;;1.10;0.80;;;16.60;99.90;;;;;;4916624;28;20457;-80
2022/12/31 09:41:08;;;;;;;2.30;1.77;;;;;;;;;;4919247;28;20442;-78
2022/12/31 09:43:57;;;;;;;1.50;1.20;;;16.70;99.90;;;;;;4915732;28;21177;-83
2022/12/31 09:46:59;;;;;;;1.30;1.20;;;16.90;99.90;;;;;;4921218;28;20454;-79
2022/12/31 09:49:25;;;;;;;1.57;0.73;;;;;;;;;;4915308;28;20485;-80
2022/12/31 09:52:25;;;;;;;2.23;1.27;;;17.10;99.90;;;;;;4922208;28;20504;-79
2022/12/31 09:55:23;;;;;;;1.53;0.63;;;16.90;99.90;;;;;;4915291;28;20450;-80
2022/12/31 09:58:19;;;;;;;1.83;0.90;;;17.30;99.90;;;;;;4914847;28;20579;-77
2022/12/31 10:00:56;;;;;;;0.77;0.70;;;17.20;99.90;;;;;;4913059;28;21679;-77
2022/12/31 10:03:29;;;;;;;1.23;1.00;;;17.30;99.90;;;;;;4916561;28;20452;-80
2022/12/31 10:06:19;;;;;;;2.23;1.10;;;17.40;99.90;;;;;;4915212;28;20496;-80
2022/12/31 10:09:03;;;;;;;8.60;2.30;;;17.30;99.90;;;;;;4918071;28;21181;-79
2022/12/31 10:11:58;;;;;;;1.63;0.73;;;17.70;99.90;;;;;;4922901;28;20472;-80
2022/12/31 10:14:24;;;;;;;0.93;0.90;;;;;;;;;;4919136;28;20437;-79
2022/12/31 10:17:15;;;;;;;2.87;1.77;;;17.40;99.90;;;;;;4930451;28;20783;-79
2022/12/31 10:20:10;;;;;;;2.43;1.07;;;17.30;99.90;;;;;;4929639;29;20439;-81
2022/12/31 10:22:38;;;;;;;1.53;1.00;;;17.40;99.90;;;;;;4916259;28;20438;-78
2022/12/31 10:25:24;;;;;;;1.87;0.80;;;17.50;99.90;;;;;;4918339;29;20445;-80
2022/12/31 10:28:14;;;;;;;3.20;1.60;;;17.40;99.90;;;;;;4912647;28;20564;-79
2022/12/31 10:30:47;;;;;;;2.03;0.70;;;17.40;99.90;;;;;;4914198;28;20441;-77
2022/12/31 10:33:34;;;;;;;2.93;0.80;;;17.50;99.90;;;;;;4917559;28;21013;-80
2022/12/31 10:36:19;;;;;;;1.57;1.23;;;17.80;99.90;;;;;;4918466;28;20469;-79
2022/12/31 10:39:06;;;;;;;5.80;1.37;;;18.10;99.90;;;;;;4911823;29;20456;-78
2022/12/31 10:41:55;;;;;;;2.70;1.53;;;18.20;99.90;;;;;;4918231;28;20886;-78
2022/12/31 10:44:21;;;;;;;2.40;1.10;;;;;;;;;;4921828;28;20467;-81
2022/12/31 10:47:11;;;;;;;1.40;1.13;;;18.20;99.90;;;;;;4916774;28;20445;-80
2022/12/31 10:50:14;;;;;;;1.67;0.97;;;17.80;99.90;;;;;;4916813;28;20448;-82
2022/12/31 10:52:52;;;;;;;2.60;1.00;;;18.00;99.90;;;;;;4912187;28;20433;-81
2022/12/31 10:55:17;;;;;;;0.80;0.80;;;;;;;;;;4916234;28;20535;-81
2022/12/31 10:57:56;;;;;;;0.97;0.77;;;17.90;99.90;;;;;;4926498;28;20589;-82
2022/12/31 11:00:25;;;;;;;1.90;0.93;;;18.00;99.90;;;;;;4921352;28;20444;-78
2022/12/31 11:03:17;;;;;;;2.47;0.73;;;18.10;99.90;;;;;;4925688;28;20503;-80
2022/12/31 11:06:04;;;;;;;0.70;0.60;;;18.20;99.90;;;;;;4921087;28;20445;-80
2022/12/31 11:08:32;;;;;;;6.63;0.80;;;;;;;;;;4930058;28;20477;-84
2022/12/31 11:11:11;;;;;;;1.00;0.60;;;18.30;99.90;;;;;;4934118;28;20441;-79
2022/12/31 11:14:24;;;;;;;2.53;1.40;;;18.00;99.90;;;;;;4936780;28;20439;-80
2022/12/31 11:17:14;;;;;;;1.77;1.07;;;18.10;99.90;;;;;;4919129;28;20879;-79
2022/12/31 11:20:16;;;;;;;4.13;0.97;;;17.90;99.90;;;;;;4928000;28;20431;-80
2022/12/31 11:23:08;;;;;;;1.67;1.00;;;18.20;99.90;;;;;;4917382;28;20448;-80
2022/12/31 11:26:01;;;;;;;1.93;1.07;;;18.40;99.90;;;;;;4919251;28;20945;-82
2022/12/31 11:28:52;;;;;;;1.03;0.90;;;18.40;99.90;;;;;;4914193;28;21007;-79
2022/12/31 11:31:18;;;;;;;0.80;0.80;;;;;;;;;;4917987;28;20485;-81
2022/12/31 11:34:14;;;;;;;9.90;1.20;;;18.60;99.90;;;;;;4929482;28;20529;-79
2022/12/31 11:36:58;;;;;;;1.47;0.73;;;18.60;99.90;;;;;;4926010;28;20935;-81
2022/12/31 11:39:45;;;;;;;0.80;0.80;;;18.60;99.90;;;;;;4922411;28;20456;-79
2022/12/31 11:42:33;;;;;;;0.77;0.60;;;18.80;99.90;;;;;;4926660;28;20448;-81
2022/12/31 11:45:21;;;;;;;1.70;1.10;;;18.80;99.90;;;;;;4924490;28;20460;-82
2022/12/31 11:47:57;;;;;;;1.10;0.73;;;19.20;99.90;;;;;;4939398;28;20863;-82
2022/12/31 11:50:56;;;;;;;8.90;0.80;;;19.00;99.90;;;;;;4924445;29;20432;-80
2022/12/31 11:53:56;;;;;;;5.73;1.20;;;18.80;99.90;;;;;;4925036;28;20448;-83
2022/12/31 11:56:27;;;;;;;0.77;0.77;;;18.70;99.90;;;;;;4925260;28;20441;-83
2022/12/31 11:58:54;;;;;;;1.07;0.70;;;18.80;99.90;;;;;;4929327;28;20500;-81
2022/12/31 12:01:32;;;;;;;2.30;0.70;;;18.80;99.90;;;;;;4920368;28;20947;-83
2022/12/31 12:03:58;;;;;;;1.83;0.90;;;;;;;;;;4935837;28;20437;-83
2022/12/31 12:06:29;;;;;;;1.80;1.30;;;18.80;99.90;;;;;;4924085;28;20821;-82
2022/12/31 12:09:06;;;;;;;3.87;1.57;;;18.80;99.90;;;;;;4924954;28;20486;-81
2022/12/31 12:11:36;;;;;;;2.43;0.63;;;18.90;99.90;;;;;;4921185;28;20498;-85
2022/12/31 12:14:28;;;;;;;2.57;0.90;;;19.20;99.90;;;;;;4930414;29;20438;-82
2022/12/31 12:16:56;;;;;;;1.73;0.83;;;19.10;99.90;;;;;;4933273;28;21600;-81
2022/12/31 12:19:25;;;;;;;1.10;0.90;;;19.20;99.90;;;;;;4919064;29;20499;-84
2022/12/31 12:21:52;;;;;;;2.10;0.87;;;;;;;;;;4922475;29;20437;-82
2022/12/31 12:24:27;;;;;;;1.13;0.90;;;19.20;99.90;;;;;;4925656;28;20461;-85
2022/12/31 12:26:53;;;;;;;1.10;0.70;;;;;;;;;;4924564;28;20559;-85
2022/12/31 12:29:23;;;;;;;1.70;0.93;;;18.90;99.90;;;;;;4919200;28;21007;-82
2022/12/31 12:32:04;;;;;;;2.23;0.80;;;19.10;99.90;;;;;;4928165;29;21015;-82
2022/12/31 12:34:32;;;;;;;1.43;1.00;;;19.30;99.90;;;;;;4917360;28;20418;-82
2022/12/31 12:36:58;;;;;;;0.60;0.50;;;;;;;;;;4915968;29;20497;-83
2022/12/31 12:39:30;;;;;;;1.30;1.00;;;19.20;99.90;;;;;;4919275;28;20472;-82
2022/12/31 12:42:04;;;;;;;1.33;0.80;;;19.20;99.90;;;;;;4917254;28;20446;-82
2022/12/31 12:44:31;;;;;;;1.17;0.77;;;;;;;;;;4914730;28;20461;-84
2022/12/31 12:46:57;;;;;;;1.37;0.80;;;19.10;99.90;;;;;;4926117;28;20802;-83
2022/12/31 12:49:23;;;;;;;1.60;0.70;;;;;;;;;;4911866;28;20458;-83
2022/12/31 12:52:23;;;;;;;1.13;0.90;;;18.90;99.90;;;;;;4916601;28;20441;-82
2022/12/31 12:55:03;;;;;;;0.80;0.60;;;18.80;99.90;;;;;;4937010;28;20484;-82
2022/12/31 12:58:04;;;;;;;0.80;0.60;;;18.70;99.90;;;;;;4921810;28;20922;-84
2022/12/31 13:00:45;;;;;;;1.23;0.60;;;18.60;99.90;;;;;;4926529;28;20473;-86
2022/12/31 13:03:38;;;;;;;1.27;0.80;;;18.70;99.90;;;;;;4929285;28;20828;-82
2022/12/31 13:06:22;;;;;;;0.80;0.70;;;18.50;99.90;;;;;;4921391;29;20798;-84
2022/12/31 13:09:00;;;;;;;1.93;1.37;;;18.60;99.90;;;;;;4925353;28;20962;-85
2022/12/31 13:11:56;;;;;;;0.80;0.60;;;18.60;99.90;;;;;;4918053;29;20425;-84
2022/12/31 13:14:31;;;;;;;1.87;0.87;;;18.60;99.90;;;;;;4916948;28;20476;-83
2022/12/31 13:17:23;;;;;;;0.83;0.70;;;18.30;99.90;;;;;;4930533;28;20412;-82
2022/12/31 13:20:02;;;;;;;0.90;0.80;;;18.60;99.90;;;;;;4916834;28;20975;-84
2022/12/31 13:22:28;;;;;;;0.57;0.53;;;;;;;;;;4930710;28;20401;-84
2022/12/31 13:25:00;;;;;;;0.63;0.50;;;18.30;99.90;;;;;;4915799;28;20896;-83
2022/12/31 13:27:37;;;;;;;1.87;0.70;;;18.50;99.90;;;;;;4915178;28;20470;-83
2022/12/31 13:30:14;;;;;;;1.23;0.73;;;18.50;99.90;;;;;;4935592;28;20852;-81
2022/12/31 13:32:46;;;;;;;1.60;0.80;;;18.40;99.90;;;;;;4928034;29;20452;-84
2022/12/31 13:35:25;;;;;;;0.70;0.70;;;18.40;99.90;;;;;;4942002;29;20469;-82
2022/12/31 13:37:58;;;;;;;1.47;0.80;;;18.40;99.90;;;;;;4916546;29;20453;-83
2022/12/31 13:40:45;;;;;;;2.30;0.70;;;18.40;99.90;;;;;;4923723;28;20422;-85
2022/12/31 13:43:34;;;;;;;3.60;0.70;;;18.30;99.90;;;;;;4933540;28;20437;-84
2022/12/31 13:46:10;;;;;;;1.60;0.80;;;18.30;99.90;;;;;;4958093;28;20410;-83
2022/12/31 13:48:47;;;;;;;0.60;0.53;;;18.20;99.90;;;;;;4946684;28;20848;-83
2022/12/31 13:51:43;;;;;;;2.63;1.60;;;18.20;99.90;;;;;;4943151;29;21276;-86
2022/12/31 13:54:14;;;;;;;1.37;0.93;;;18.10;99.90;;;;;;4929340;29;20420;-82
2022/12/31 13:56:41;;;;;;;2.40;0.60;;;18.10;99.90;;;;;;4934233;29;20416;-84
2022/12/31 13:59:25;;;;;;;0.90;0.60;;;18.00;99.90;;;;;;4931394;29;20515;-82
2022/12/31 14:02:00;;;;;;;1.07;0.70;;;18.00;99.90;;;;;;4929400;28;20447;-81
2022/12/31 14:04:50;;;;;;;1.27;0.70;;;18.00;99.90;;;;;;4923431;28;20451;-81
2022/12/31 14:07:25;;;;;;;1.20;0.90;;;17.60;99.90;;;;;;4920652;28;20476;-80
2022/12/31 14:09:51;;;;;;;1.97;1.03;;;;;;;;;;4920848;29;20444;-82
2022/12/31 14:12:30;;;;;;;2.43;1.60;;;18.00;99.90;;;;;;4926601;28;20468;-81
2022/12/31 14:15:01;;;;;;;0.80;0.70;;;;;;;;;;4916652;29;20434;-83
2022/12/31 14:18:09;;;;;;;3.50;2.20;;;18.00;99.90;;;;;;4916776;28;20497;-83